The Eastern Iowa Airport
KCID : now visible

Airfield :











YOU CAN JOIN US ON...

 
LOGIN :

Register | Disclaimer

   EN    FR    IT 

 









Legend :    VFR   Marginal VFR   IFR   Intensive IFR   Very Intensive IFR
Visi :
Ceiling :
>= 8 km
>= 3000ft
5 to 8 km
1000 to 3000 ft
1500m to 5 km
500 to 1000 ft
800 to 1500m
200 to 500 ft
< 800m
< 200 ft
Symbols :   Thunderstorms  Fog  Heavy snow  Heavy precipitations  Wind > 20 kt







- Airport Elevation : 869 ft
- IATA code : CID


KCID - The Eastern Iowa

CURRENT METAR :
  • 191514Z 00000KT 1 1/4SM BR OVC001 M17/M17 A3059 RMK AO2 T11671172

EXPIRED METARs :
  • 191452Z 34003KT 2SM BR OVC001 M18/M19 A3058 RMK AO2 SLP380 T11781189 55001
  • 191352Z 01003KT 2 1/2SM BR OVC001 M21/M22 A3058 RMK AO2 SLP381 T12111222
  • 191347Z 00000KT 2 1/2SM BR OVC001 M21/M22 A3058 RMK AO2
  • 191310Z 33004KT 1/2SM R09/P6000FT FZFG OVC001 M21/M23 A3058 RMK AO2 T12111228 $
  • 191252Z 34005KT 1/8SM R09/P6000FT FZFG OVC001 M21/M23 A3059 RMK AO2 SLP382 T12111228 $
  • 191242Z 34006KT 1/8SM R09/P6000FT FZFG OVC001 M21/M23 A3058 RMK AO2 T12111228 $

TAF KCID
Valid from the 19 at 15:00 until the 20 at 12:00 UTC


191506Z 1915/2012 33003KT 2SM BR VV001
FM191700 VRB03KT 4SM BR SCT001 SCT060
FM192000 09007KT P6SM OVC100
FM200600 09011KT 3SM -SN OVC025
FM200900 08013G22KT 1SM -SN OVC010
KZAU FIR / North America



MET'MAP, your aeronautical weather chart ! - Copyright ORBIFLY December 2007 - Disclaimer

ORBIFLY MET'MAP TEAM :

Programming & Development : Alexandra Zaïnal
Concept & Development : Baudouin d'Aumeries
Co-Development & Prog : Marc-Olivier Méhu
Technical & hardware support : Manuel Goepfert

Contact : metmap@orbifly.com




SOURCES & CREDITS :

   NOAA       Earth
Advisory